createdAt,value
2018-05-04T00:01:16.537Z,10.59
2018-05-04T00:03:51.158Z,10.55
2018-05-04T00:06:25.756Z,10.51
2018-05-04T00:09:00.436Z,10.49
2018-05-04T00:11:34.892Z,10.46
2018-05-04T00:14:09.549Z,10.46
2018-05-04T00:16:44.120Z,10.42
2018-05-04T00:19:18.809Z,10.38
2018-05-04T00:21:53.399Z,10.38
2018-05-04T00:24:28.168Z,10.42
2018-05-04T00:27:02.589Z,10.38
2018-05-04T00:29:37.053Z,10.32
2018-05-04T00:32:11.401Z,10.32
2018-05-04T00:34:45.999Z,10.32
2018-05-04T00:37:20.575Z,10.25
2018-05-04T00:39:55.903Z,10.17
2018-05-04T00:42:30.537Z,10.17
2018-05-04T00:45:05.779Z,10.10
2018-05-04T00:47:40.391Z,10.14
2018-05-04T00:50:15.128Z,10.07
2018-05-04T00:52:49.846Z,10.05
2018-05-04T00:55:24.586Z,10.06
2018-05-04T00:57:59.846Z,9.94
2018-05-04T01:00:34.446Z,9.92
2018-05-04T01:03:09.033Z,9.91
2018-05-04T01:05:43.582Z,9.83
2018-05-04T01:08:18.181Z,9.83
2018-05-04T01:10:52.749Z,9.79
2018-05-04T01:13:28.040Z,9.78
2018-05-04T01:16:03.386Z,9.74
2018-05-04T01:18:37.856Z,9.71
2018-05-04T01:21:12.321Z,9.66
2018-05-04T01:23:47.064Z,9.64
2018-05-04T01:26:21.506Z,9.67
2018-05-04T01:28:56.012Z,9.59
2018-05-04T01:31:30.553Z,9.54
2018-05-04T01:34:05.853Z,9.52
2018-05-04T01:36:40.377Z,9.48
2018-05-04T01:39:14.914Z,9.46
2018-05-04T01:41:50.178Z,9.41
2018-05-04T01:44:24.735Z,9.30
2018-05-04T01:46:59.259Z,9.27
2018-05-04T01:49:33.749Z,9.25
2018-05-04T01:52:09.052Z,9.29
2018-05-04T01:54:43.659Z,9.36
2018-05-04T01:57:18.300Z,9.22
2018-05-04T01:59:52.779Z,9.11
2018-05-04T02:02:27.441Z,9.08
2018-05-04T02:05:01.970Z,9.07
2018-05-04T02:07:36.456Z,9.05
2018-05-04T02:10:10.929Z,9.02
2018-05-04T02:12:45.488Z,8.97
2018-05-04T02:15:20.908Z,8.96
2018-05-04T02:17:55.524Z,8.95
2018-05-04T02:20:30.074Z,8.94
2018-05-04T02:23:04.672Z,8.92
2018-05-04T02:25:39.333Z,8.89
2018-05-04T02:28:13.904Z,8.85
2018-05-04T02:30:48.460Z,8.82
2018-05-04T02:33:23.142Z,8.78
2018-05-04T02:35:58.453Z,8.76
2018-05-04T02:38:33.759Z,8.78
2018-05-04T02:41:08.337Z,8.78
2018-05-04T02:43:42.826Z,8.76
2018-05-04T02:46:17.520Z,8.74
2018-05-04T02:48:52.910Z,8.70
2018-05-04T02:51:27.468Z,8.70
2018-05-04T02:54:01.893Z,8.60
2018-05-04T02:56:36.413Z,8.57
2018-05-04T02:59:10.982Z,8.61
2018-05-04T03:01:45.605Z,8.56
2018-05-04T03:04:20.224Z,8.52
2018-05-04T03:06:54.881Z,8.56
2018-05-04T03:09:30.088Z,8.52
2018-05-04T03:12:04.714Z,8.45
2018-05-04T03:14:39.441Z,8.42
2018-05-04T03:17:14.089Z,8.36
2018-05-04T03:19:48.547Z,8.35
2018-05-04T03:22:23.109Z,8.31
2018-05-04T03:24:57.649Z,8.30
2018-05-04T03:27:32.252Z,8.28
2018-05-04T03:30:06.721Z,8.23
2018-05-04T03:32:41.444Z,8.19
2018-05-04T03:35:15.866Z,8.17
2018-05-04T03:37:50.305Z,8.18
2018-05-04T03:40:24.914Z,8.16
2018-05-04T03:42:59.489Z,8.11
2018-05-04T03:45:34.045Z,8.11
2018-05-04T03:48:09.625Z,8.05
2018-05-04T03:50:44.025Z,8.07
2018-05-04T03:53:18.599Z,8.00
2018-05-04T03:55:53.996Z,8.01
2018-05-04T03:58:46.362Z,7.95
2018-05-04T04:01:38.733Z,7.94
2018-05-04T04:04:13.393Z,7.92
2018-05-04T04:06:48.017Z,7.92
2018-05-04T04:09:22.704Z,7.90
2018-05-04T04:11:58.020Z,7.92
2018-05-04T04:14:32.566Z,7.91
2018-05-04T04:17:06.961Z,7.90
2018-05-04T04:19:42.326Z,7.90
2018-05-04T04:22:17.060Z,7.87
2018-05-04T04:24:51.679Z,7.86
2018-05-04T04:27:26.329Z,7.87
2018-05-04T04:30:00.739Z,7.87
2018-05-04T04:32:35.344Z,7.87
2018-05-04T04:35:09.883Z,7.86
2018-05-04T04:37:44.300Z,7.87
2018-05-04T04:40:19.594Z,7.87
2018-05-04T04:42:54.230Z,7.90
2018-05-04T04:45:29.574Z,7.91
2018-05-04T04:48:04.112Z,7.94
2018-05-04T04:50:38.669Z,7.98
2018-05-04T04:53:13.089Z,8.02
2018-05-04T04:55:47.561Z,8.06
2018-05-04T04:58:22.117Z,8.10
2018-05-04T05:00:56.679Z,8.22
2018-05-04T05:03:31.085Z,8.23
2018-05-04T05:06:05.639Z,8.27
2018-05-04T05:08:40.821Z,8.31
2018-05-04T05:11:15.490Z,8.29
2018-05-04T05:13:50.050Z,8.36
2018-05-04T05:16:25.254Z,8.39
2018-05-04T05:18:59.837Z,8.49
2018-05-04T05:21:34.466Z,8.54
2018-05-04T05:24:09.054Z,8.61
2018-05-04T05:26:43.461Z,8.64
2018-05-04T05:29:17.894Z,8.70
2018-05-04T05:31:53.124Z,8.74
2018-05-04T05:34:27.693Z,8.90
2018-05-04T05:37:02.153Z,8.94
2018-05-04T05:39:36.644Z,9.06
2018-05-04T05:42:11.941Z,9.15
2018-05-04T05:44:46.491Z,9.25
2018-05-04T05:47:21.091Z,9.27
2018-05-04T05:49:55.670Z,9.39
2018-05-04T05:52:31.015Z,9.46
2018-05-04T05:55:05.603Z,9.60
2018-05-04T05:57:40.161Z,9.65
2018-05-04T06:00:14.692Z,9.84
2018-05-04T06:02:49.114Z,9.91
2018-05-04T06:05:23.516Z,10.03
2018-05-04T06:07:59.032Z,10.18
2018-05-04T06:10:33.548Z,10.31
2018-05-04T06:13:08.873Z,10.49
2018-05-04T06:15:43.566Z,10.54
2018-05-04T06:18:18.321Z,10.65
2018-05-04T06:20:52.844Z,10.73
2018-05-04T06:23:27.415Z,10.85
2018-05-04T06:26:02.839Z,11.08
2018-05-04T06:28:37.238Z,11.14
2018-05-04T06:31:12.617Z,11.28
2018-05-04T06:33:47.106Z,11.28
2018-05-04T06:36:21.701Z,11.38
2018-05-04T06:38:56.355Z,11.62
2018-05-04T06:41:30.974Z,11.72
2018-05-04T06:44:05.398Z,11.78
2018-05-04T06:46:39.919Z,11.88
2018-05-04T06:49:14.604Z,11.96
2018-05-04T06:51:49.307Z,12.12
2018-05-04T06:54:23.849Z,12.25
2018-05-04T06:56:58.434Z,12.37
2018-05-04T06:59:33.103Z,12.38
2018-05-04T07:02:07.541Z,12.51
2018-05-04T07:04:42.012Z,12.78
2018-05-04T07:07:16.644Z,12.97
2018-05-04T07:09:51.130Z,13.15
2018-05-04T07:12:26.498Z,13.37
2018-05-04T07:15:01.254Z,13.56
2018-05-04T07:17:35.760Z,13.72
2018-05-04T07:20:10.306Z,13.83
2018-05-04T07:22:44.937Z,13.92
2018-05-04T07:25:19.532Z,13.94
2018-05-04T07:27:54.114Z,14.19
2018-05-04T07:30:28.723Z,14.43
2018-05-04T07:33:03.246Z,14.71
2018-05-04T07:35:37.661Z,14.78
2018-05-04T07:38:13.008Z,14.99
2018-05-04T07:40:47.457Z,15.12
2018-05-04T07:43:21.863Z,15.33
2018-05-04T07:45:56.570Z,15.49
2018-05-04T07:48:31.179Z,15.61
2018-05-04T07:51:06.488Z,15.69
2018-05-04T07:53:41.144Z,15.94
2018-05-04T07:56:16.535Z,16.15
2018-05-04T07:58:51.914Z,16.22
2018-05-04T08:01:26.405Z,16.46
2018-05-04T08:04:00.978Z,16.67
2018-05-04T08:06:35.604Z,16.89
2018-05-04T08:09:10.842Z,17.07
2018-05-04T08:11:45.406Z,17.43
2018-05-04T08:14:19.889Z,17.65
2018-05-04T08:16:54.507Z,17.94
2018-05-04T08:19:29.842Z,18.12
2018-05-04T08:22:04.422Z,18.36
2018-05-04T08:24:39.004Z,18.67
2018-05-04T08:27:13.521Z,18.77
2018-05-04T08:29:48.173Z,18.94
2018-05-04T08:32:22.711Z,19.17
2018-05-04T08:34:57.388Z,19.38
2018-05-04T08:37:32.044Z,19.66
2018-05-04T08:40:06.582Z,19.94
2018-05-04T08:42:41.031Z,20.32
2018-05-04T08:45:16.367Z,20.56
2018-05-04T08:47:51.577Z,20.70
2018-05-04T08:50:26.244Z,20.88
2018-05-04T08:53:00.936Z,20.96
2018-05-04T08:55:35.575Z,21.18
2018-05-04T08:58:10.145Z,21.24
2018-05-04T09:00:44.704Z,21.33
2018-05-04T09:03:19.896Z,21.69
2018-05-04T09:05:54.441Z,21.80
2018-05-04T09:08:29.112Z,22.03
2018-05-04T09:11:04.484Z,22.14
2018-05-04T09:13:39.065Z,22.37
2018-05-04T09:16:13.680Z,22.60
2018-05-04T09:18:48.313Z,22.90
2018-05-04T09:21:22.955Z,22.94
2018-05-04T09:23:57.577Z,22.90
2018-05-04T09:26:32.089Z,22.96
2018-05-04T09:29:06.576Z,22.96
2018-05-04T09:31:41.161Z,23.15
2018-05-04T09:34:16.567Z,23.14
2018-05-04T09:36:51.101Z,22.97
2018-05-04T09:39:25.741Z,23.06
2018-05-04T09:42:00.375Z,23.28
2018-05-04T09:44:34.901Z,23.49
2018-05-04T09:47:09.550Z,23.85
2018-05-04T09:49:44.095Z,24.10
2018-05-04T09:52:18.671Z,24.06
2018-05-04T09:54:53.319Z,23.97
2018-05-04T09:57:27.812Z,23.85
2018-05-04T10:00:02.419Z,23.95
2018-05-04T10:02:36.950Z,23.21
2018-05-04T10:05:11.543Z,23.33
2018-05-04T10:07:46.849Z,23.63
2018-05-04T10:10:21.536Z,23.81
2018-05-04T10:12:56.058Z,23.77
2018-05-04T10:15:30.628Z,24.01
2018-05-04T10:18:05.245Z,24.40
2018-05-04T10:20:39.885Z,24.58
2018-05-04T10:23:14.442Z,24.84
2018-05-04T10:25:48.966Z,24.82
2018-05-04T10:28:23.361Z,24.83
2018-05-04T10:30:58.019Z,24.63
2018-05-04T10:33:32.657Z,24.59
2018-05-04T10:36:07.239Z,24.69
2018-05-04T10:38:42.015Z,24.60
2018-05-04T10:41:16.287Z,24.42
2018-05-04T10:43:50.947Z,24.79
2018-05-04T10:46:25.521Z,25.30
2018-05-04T10:49:00.180Z,25.67
2018-05-04T10:51:34.802Z,25.88
2018-05-04T10:54:10.149Z,26.05
2018-05-04T10:56:44.740Z,26.14
2018-05-04T10:59:20.126Z,26.21
2018-05-04T11:01:54.737Z,26.30
2018-05-04T11:04:29.186Z,26.09
2018-05-04T11:07:03.826Z,26.16
2018-05-04T11:09:38.253Z,26.03
2018-05-04T11:12:12.813Z,26.35
2018-05-04T11:14:47.722Z,26.64
2018-05-04T11:17:22.284Z,26.60
2018-05-04T11:19:56.892Z,26.33
2018-05-04T11:22:32.227Z,26.18
2018-05-04T11:25:06.789Z,26.45
2018-05-04T11:27:41.424Z,26.89
2018-05-04T11:30:16.006Z,27.13
2018-05-04T11:32:50.651Z,27.24
2018-05-04T11:35:25.261Z,27.26
2018-05-04T11:37:59.875Z,27.26
2018-05-04T11:40:34.458Z,27.44
2018-05-04T11:43:09.082Z,27.42
2018-05-04T11:45:43.659Z,27.28
2018-05-04T11:48:19.082Z,27.65
2018-05-04T11:50:54.397Z,27.85
2018-05-04T11:53:29.020Z,27.79
2018-05-04T11:56:04.363Z,27.98
2018-05-04T11:58:38.935Z,27.95
2018-05-04T12:01:13.604Z,27.35
2018-05-04T12:03:48.130Z,27.26
2018-05-04T12:06:22.739Z,27.33
2018-05-04T12:08:57.213Z,27.37
2018-05-04T12:11:32.537Z,27.61
2018-05-04T12:14:07.151Z,27.85
2018-05-04T12:16:41.651Z,27.61
2018-05-04T12:19:16.168Z,27.84
2018-05-04T12:21:50.852Z,27.82
2018-05-04T12:24:26.065Z,27.85
2018-05-04T12:27:00.643Z,27.82
2018-05-04T12:29:35.268Z,28.01
2018-05-04T12:32:09.780Z,28.48
2018-05-04T12:34:44.354Z,28.57
2018-05-04T12:37:19.611Z,28.42
2018-05-04T12:39:54.189Z,28.68
2018-05-04T12:42:28.800Z,28.19
2018-05-04T12:45:03.501Z,27.83
2018-05-04T12:47:38.276Z,27.91
2018-05-04T12:50:13.682Z,28.22
2018-05-04T12:52:48.300Z,28.33
2018-05-04T12:55:22.786Z,28.39
2018-05-04T12:57:57.376Z,28.40
2018-05-04T13:00:31.941Z,28.37
2018-05-04T13:03:06.502Z,28.30
2018-05-04T13:05:41.013Z,28.16
2018-05-04T13:08:15.684Z,28.01
2018-05-04T13:10:50.262Z,28.03
2018-05-04T13:13:24.801Z,28.06
2018-05-04T13:15:59.312Z,28.13
2018-05-04T13:18:33.957Z,27.99
2018-05-04T13:21:08.582Z,27.47
2018-05-04T13:23:43.925Z,27.35
2018-05-04T13:26:18.704Z,27.09
2018-05-04T13:28:53.324Z,27.30
2018-05-04T13:31:28.670Z,27.55
2018-05-04T13:34:03.102Z,28.07
2018-05-04T13:36:37.666Z,27.52
2018-05-04T13:39:12.263Z,27.57
2018-05-04T13:41:46.828Z,27.68
2018-05-04T13:44:21.297Z,27.78
2018-05-04T13:46:55.727Z,27.93
2018-05-04T13:49:30.192Z,27.75
2018-05-04T13:52:04.716Z,27.78
2018-05-04T13:54:39.934Z,27.53
2018-05-04T13:57:14.605Z,27.32
2018-05-04T13:59:50.535Z,27.40
2018-05-04T14:02:25.058Z,27.55
2018-05-04T14:04:59.590Z,27.71
2018-05-04T14:07:34.152Z,27.34
2018-05-04T14:10:08.762Z,27.15
2018-05-04T14:12:43.416Z,26.95
2018-05-04T14:15:17.983Z,26.77
2018-05-04T14:17:52.710Z,26.89
2018-05-04T14:20:27.130Z,26.96
2018-05-04T14:23:01.653Z,26.73
2018-05-04T14:25:36.287Z,26.74
2018-05-04T14:28:10.773Z,26.82
2018-05-04T14:30:45.354Z,26.51
2018-05-04T14:33:19.975Z,26.68
2018-05-04T14:35:54.395Z,26.95
2018-05-04T14:38:29.020Z,27.06
2018-05-04T14:41:03.634Z,27.15
2018-05-04T14:43:38.211Z,27.45
2018-05-04T14:46:12.633Z,27.40
2018-05-04T14:48:47.226Z,27.37
2018-05-04T14:51:21.719Z,27.27
2018-05-04T14:53:56.126Z,27.03
2018-05-04T14:56:30.715Z,26.88
2018-05-04T14:59:05.255Z,26.70
2018-05-04T15:01:39.838Z,26.52
2018-05-04T15:04:14.421Z,26.17
2018-05-04T15:06:48.994Z,26.26
2018-05-04T15:09:23.480Z,26.25
2018-05-04T15:11:58.096Z,26.33
2018-05-04T15:14:32.684Z,26.44
2018-05-04T15:17:07.293Z,26.41
2018-05-04T15:19:41.685Z,26.23
2018-05-04T15:22:16.361Z,26.01
2018-05-04T15:24:51.702Z,25.92
2018-05-04T15:27:26.088Z,26.09
2018-05-04T15:30:00.685Z,26.20
2018-05-04T15:32:35.340Z,25.94
2018-05-04T15:35:09.901Z,25.80
2018-05-04T15:37:44.512Z,25.64
2018-05-04T15:40:19.140Z,25.59
2018-05-04T15:42:54.485Z,25.45
2018-05-04T15:45:29.117Z,25.29
2018-05-04T15:48:10.150Z,25.15
2018-05-04T15:53:49.809Z,24.92
2018-05-04T15:56:24.377Z,24.85
2018-05-04T15:58:58.994Z,24.84
2018-05-04T16:01:33.466Z,24.51
2018-05-04T16:04:08.085Z,24.32
2018-05-04T16:06:42.673Z,24.18
2018-05-04T16:09:17.235Z,24.28
2018-05-04T16:11:51.819Z,24.25
2018-05-04T16:14:26.408Z,24.24
2018-05-04T16:17:00.985Z,24.13
2018-05-04T16:19:35.616Z,23.93
2018-05-04T16:22:10.964Z,23.69
2018-05-04T16:24:45.574Z,23.65
2018-05-04T16:27:20.038Z,23.58
2018-05-04T16:29:54.595Z,23.44
2018-05-04T16:32:29.932Z,23.24
2018-05-04T16:35:04.524Z,22.89
2018-05-04T16:37:39.150Z,22.73
2018-05-04T16:40:13.716Z,22.58
2018-05-04T16:42:48.273Z,22.40
2018-05-04T16:45:22.905Z,22.31
2018-05-04T16:48:02.650Z,22.27
2018-05-04T16:50:37.290Z,22.26
2018-05-04T16:53:11.833Z,22.14
2018-05-04T16:55:46.470Z,22.04
2018-05-04T16:58:21.041Z,21.94
2018-05-04T17:00:55.676Z,21.84
2018-05-04T17:03:30.284Z,21.74
2018-05-04T17:06:04.841Z,21.64
2018-05-04T17:08:39.504Z,21.59
2018-05-04T17:11:14.057Z,21.54
2018-05-04T17:13:48.534Z,21.45
2018-05-04T17:16:23.145Z,21.41
2018-05-04T17:18:57.824Z,21.27
2018-05-04T17:21:32.363Z,21.16
2018-05-04T17:24:07.035Z,21.07
2018-05-04T17:26:42.356Z,20.96
2018-05-04T17:29:16.812Z,20.92
2018-05-04T17:31:51.467Z,20.83
2018-05-04T17:34:25.988Z,20.75
2018-05-04T17:37:00.385Z,20.69
2018-05-04T17:39:34.949Z,20.55
2018-05-04T17:42:10.124Z,20.52
2018-05-04T17:44:44.747Z,20.47
2018-05-04T17:47:20.054Z,20.29
2018-05-04T17:49:54.617Z,20.19
2018-05-04T17:52:29.245Z,20.10
2018-05-04T17:55:04.638Z,19.98
2018-05-04T17:57:39.162Z,19.88
2018-05-04T18:00:13.644Z,19.88
2018-05-04T18:02:48.268Z,19.77
2018-05-04T18:05:22.938Z,19.70
2018-05-04T18:07:57.520Z,19.59
2018-05-04T18:10:32.852Z,19.52
2018-05-04T18:13:07.413Z,19.48
2018-05-04T18:15:42.014Z,19.37
2018-05-04T18:18:16.427Z,19.29
2018-05-04T18:20:50.876Z,19.19
2018-05-04T18:23:25.429Z,19.16
2018-05-04T18:25:59.974Z,19.02
2018-05-04T18:28:34.652Z,18.98
2018-05-04T18:31:09.233Z,18.81
2018-05-04T18:33:43.832Z,18.74
2018-05-04T18:36:18.411Z,18.69
2018-05-04T18:38:53.047Z,18.67
2018-05-04T18:41:27.583Z,18.59
2018-05-04T18:44:02.200Z,18.47
2018-05-04T18:46:37.508Z,18.39
2018-05-04T18:49:12.104Z,18.35
2018-05-04T18:51:46.581Z,18.25
2018-05-04T18:54:21.329Z,18.10
2018-05-04T18:56:55.898Z,17.97
2018-05-04T18:59:31.248Z,17.89
2018-05-04T19:02:05.830Z,17.85
2018-05-04T19:04:40.451Z,17.78
2018-05-04T19:07:15.922Z,17.71
2018-05-04T19:09:50.646Z,17.67
2018-05-04T19:12:25.223Z,17.56
2018-05-04T19:14:59.849Z,17.51
2018-05-04T19:17:34.329Z,17.48
2018-05-04T19:20:08.926Z,17.43
2018-05-04T19:22:43.472Z,17.32
2018-05-04T19:25:18.654Z,17.28
2018-05-04T19:27:53.201Z,17.14
2018-05-04T19:30:27.685Z,17.05
2018-05-04T19:33:02.246Z,17.03
2018-05-04T19:35:36.785Z,17.02
2018-05-04T19:38:11.353Z,16.97
2018-05-04T19:40:46.586Z,16.92
2018-05-04T19:43:21.070Z,16.88
2018-05-04T19:45:56.424Z,16.85
2018-05-04T19:48:31.138Z,16.79
2018-05-04T19:51:06.379Z,16.75
2018-05-04T19:53:41.050Z,16.74
2018-05-04T19:56:15.553Z,16.71
2018-05-04T19:58:50.900Z,16.54
2018-05-04T20:01:25.469Z,16.47
2018-05-04T20:04:00.067Z,16.40
2018-05-04T20:06:34.526Z,16.36
2018-05-04T20:09:09.159Z,16.32
2018-05-04T20:11:43.635Z,16.25
2018-05-04T20:14:18.275Z,16.19
2018-05-04T20:16:52.837Z,16.18
2018-05-04T20:19:27.577Z,16.12
2018-05-04T20:22:02.070Z,16.08
2018-05-04T20:24:36.719Z,16.03
2018-05-04T20:27:11.219Z,16.01
2018-05-04T20:29:45.775Z,16.00
2018-05-04T20:32:20.998Z,15.95
2018-05-04T20:34:56.100Z,15.82
2018-05-04T20:37:30.677Z,15.83
2018-05-04T20:40:06.092Z,15.74
2018-05-04T20:42:40.628Z,15.66
2018-05-04T20:45:15.289Z,15.66
2018-05-04T20:47:49.810Z,15.57
2018-05-04T20:50:24.419Z,15.57
2018-05-04T20:52:59.029Z,15.52
2018-05-04T20:55:33.595Z,15.54
2018-05-04T20:58:08.840Z,15.43
2018-05-04T21:00:43.418Z,15.39
2018-05-04T21:03:18.028Z,15.30
2018-05-04T21:05:53.378Z,15.26
2018-05-04T21:08:27.902Z,15.17
2018-05-04T21:11:02.615Z,15.11
2018-05-04T21:13:37.329Z,15.12
2018-05-04T21:16:11.759Z,15.05
2018-05-04T21:18:46.361Z,15.02
2018-05-04T21:21:21.026Z,14.96
2018-05-04T21:23:55.774Z,14.88
2018-05-04T21:26:30.451Z,14.81
2018-05-04T21:29:05.193Z,14.77
2018-05-04T21:31:39.813Z,14.79
2018-05-04T21:34:15.034Z,14.71
2018-05-04T21:36:55.882Z,14.65
2018-05-04T21:39:30.397Z,14.66
2018-05-04T21:42:04.989Z,14.60
2018-05-04T21:44:39.580Z,14.55
2018-05-04T21:47:14.178Z,14.58
2018-05-04T21:49:48.765Z,14.54
2018-05-04T21:52:23.381Z,14.44
2018-05-04T21:54:58.038Z,14.44
2018-05-04T21:57:32.578Z,14.40
2018-05-04T22:00:07.074Z,14.34
2018-05-04T22:02:41.682Z,14.32
2018-05-04T22:05:16.270Z,14.24
2018-05-04T22:07:50.905Z,14.25
2018-05-04T22:10:25.574Z,14.23
2018-05-04T22:13:00.796Z,14.19
2018-05-04T22:15:36.226Z,14.14
2018-05-04T22:18:10.622Z,14.12
2018-05-04T22:20:45.186Z,14.07
2018-05-04T22:23:19.773Z,14.00
2018-05-04T22:25:54.393Z,14.01
2018-05-04T22:28:29.095Z,13.99
2018-05-04T22:31:03.654Z,13.92
2018-05-04T22:33:38.152Z,13.87
2018-05-04T22:36:12.557Z,13.86
2018-05-04T22:38:47.092Z,13.84
2018-05-04T22:41:21.706Z,13.77
2018-05-04T22:43:56.127Z,13.75
2018-05-04T22:46:30.722Z,13.76
2018-05-04T22:49:05.962Z,13.66
2018-05-04T22:51:40.500Z,13.66
2018-05-04T22:54:15.192Z,13.70
2018-05-04T22:56:49.909Z,13.64
2018-05-04T22:59:24.373Z,13.64
2018-05-04T23:01:59.749Z,13.60
2018-05-04T23:04:34.280Z,13.51
2018-05-04T23:07:09.590Z,13.49
2018-05-04T23:09:44.854Z,13.46
2018-05-04T23:12:19.476Z,13.45
2018-05-04T23:14:53.924Z,13.50
2018-05-04T23:17:28.515Z,13.46
2018-05-04T23:20:03.136Z,13.36
2018-05-04T23:22:37.808Z,13.31
2018-05-04T23:25:13.078Z,13.35
2018-05-04T23:27:47.780Z,13.29
2018-05-04T23:30:22.278Z,13.28
2018-05-04T23:32:57.633Z,13.30
2018-05-04T23:35:32.195Z,13.28
2018-05-04T23:38:07.446Z,13.21
2018-05-04T23:40:42.006Z,13.15
2018-05-04T23:43:16.619Z,13.12
2018-05-04T23:45:51.277Z,13.09
2018-05-04T23:48:25.759Z,13.02
2018-05-04T23:51:00.202Z,13.03
2018-05-04T23:53:34.849Z,12.96
2018-05-04T23:56:11.550Z,12.93
2018-05-04T23:58:46.112Z,12.97
